Time,TemperatureF,DewpointF,PressureIn,WindDirection,WindDirectionDegrees,WindSpeedMPH,WindSpeedGustMPH,Humidity,HourlyPrecipIn,Conditions,Clouds,dailyrainin,SoftwareType,DateUTC
2013-05-15 00:14:00,59.9,48.9,29.95,ENE,67,0.0,-999.0,67,-99.99,,,0.00,Acu-Link.com,2013-05-15 04:14:00,
2013-05-15 00:29:00,59.4,48.8,29.94,NNW,337,1.7,-999.0,68,-99.99,,,0.00,Acu-Link.com,2013-05-15 04:29:00,
2013-05-15 00:45:00,59.2,48.2,29.95,East,90,1.1,-999.0,67,-99.99,,,0.00,Acu-Link.com,2013-05-15 04:45:00,
2013-05-15 01:00:00,59.4,48.4,29.94,West,270,1.1,-999.0,67,-99.99,,,0.00,Acu-Link.com,2013-05-15 05:00:00,
2013-05-15 01:15:00,59.5,47.7,29.94,ENE,67,0.0,-999.0,65,-99.99,,,0.00,Acu-Link.com,2013-05-15 05:15:00,
2013-05-15 01:30:00,59.9,47.7,29.94,WNW,292,2.2,-999.0,64,-99.99,,,0.00,Acu-Link.com,2013-05-15 05:30:00,
2013-05-15 01:46:00,59.7,47.5,29.95,West,270,1.1,-999.0,64,-99.99,,,0.00,Acu-Link.com,2013-05-15 05:46:00,
2013-05-15 02:01:00,59.9,47.7,29.95,ENE,67,2.2,-999.0,64,-99.99,,,0.00,Acu-Link.com,2013-05-15 06:01:00,
2013-05-15 02:32:00,59.5,48.1,29.94,NNW,337,1.7,-999.0,66,-99.99,,,0.00,Acu-Link.com,2013-05-15 06:32:00,
2013-05-15 02:47:00,59.4,48.8,29.94,NE,45,2.7,-999.0,68,-99.99,,,0.00,Acu-Link.com,2013-05-15 06:47:00,
2013-05-15 03:02:00,59.0,48.8,29.93,ESE,112,0.0,-999.0,69,-99.99,,,0.00,Acu-Link.com,2013-05-15 07:02:00,
2013-05-15 03:17:00,59.0,49.6,29.93,ESE,112,2.2,-999.0,71,-99.99,,,0.00,Acu-Link.com,2013-05-15 07:17:00,
2013-05-15 03:33:00,58.6,49.6,29.93,NE,45,2.7,-999.0,72,-99.99,,,0.00,Acu-Link.com,2013-05-15 07:33:00,
2013-05-15 03:48:00,58.3,50.0,29.92,NNE,22,1.1,-999.0,74,-99.99,,,0.00,Acu-Link.com,2013-05-15 07:48:00,
2013-05-15 04:03:00,58.3,50.4,29.92,NW,315,0.0,-999.0,75,-99.99,,,0.00,Acu-Link.com,2013-05-15 08:03:00,
2013-05-15 04:19:00,58.1,50.6,29.92,WSW,247,1.7,-999.0,76,-99.99,,,0.00,Acu-Link.com,2013-05-15 08:19:00,
2013-05-15 04:34:00,57.9,51.1,29.92,West,270,2.7,-999.0,78,-99.99,,,0.00,Acu-Link.com,2013-05-15 08:34:00,
2013-05-15 04:49:00,57.9,51.8,29.92,West,270,0.0,-999.0,80,-99.99,,,0.00,Acu-Link.com,2013-05-15 08:49:00,
2013-05-15 05:04:00,57.9,52.4,29.92,WNW,292,2.2,-999.0,82,-99.99,,,0.00,Acu-Link.com,2013-05-15 09:04:00,
2013-05-15 05:20:00,57.9,52.8,29.93,East,90,1.7,-999.0,83,-99.99,,,0.00,Acu-Link.com,2013-05-15 09:20:00,
2013-05-15 05:35:00,57.9,53.1,29.93,ENE,67,2.7,-999.0,84,-99.99,,,0.00,Acu-Link.com,2013-05-15 09:35:00,
2013-05-15 05:50:00,57.7,53.2,29.93,WNW,292,1.7,-999.0,85,-99.99,,,0.00,Acu-Link.com,2013-05-15 09:50:00,
2013-05-15 06:06:00,57.6,53.4,29.93,ESE,112,3.2,-999.0,86,-99.99,,,0.00,Acu-Link.com,2013-05-15 10:06:00,
2013-05-15 06:21:00,57.4,53.6,29.93,WNW,292,1.7,-999.0,87,-99.99,,,0.00,Acu-Link.com,2013-05-15 10:21:00,
2013-05-15 06:37:00,57.4,53.6,29.94,NNW,337,4.2,-999.0,87,-99.99,,,0.00,Acu-Link.com,2013-05-15 10:37:00,
2013-05-15 06:52:00,57.4,53.9,29.94,East,90,1.7,-999.0,88,-99.99,,,0.00,Acu-Link.com,2013-05-15 10:52:00,
2013-05-15 07:07:00,57.6,54.1,29.94,ENE,67,1.7,-999.0,88,-99.99,,,0.00,Acu-Link.com,2013-05-15 11:07:00,
2013-05-15 07:22:00,58.5,54.3,29.94,NW,315,2.2,-999.0,86,-99.99,,,0.00,Acu-Link.com,2013-05-15 11:22:00,
2013-05-15 07:38:00,59.7,54.9,29.94,WNW,292,3.2,-999.0,84,-99.99,,,0.00,Acu-Link.com,2013-05-15 11:38:00,
2013-05-15 07:53:00,60.4,54.9,29.94,West,270,2.7,-999.0,82,-99.99,,,0.00,Acu-Link.com,2013-05-15 11:53:00,
2013-05-15 08:08:00,60.6,55.1,29.94,East,90,0.0,-999.0,82,-99.99,,,0.00,Acu-Link.com,2013-05-15 12:08:00,
2013-05-15 08:23:00,61.2,55.3,29.94,West,270,4.7,-999.0,81,-99.99,,,0.00,Acu-Link.com,2013-05-15 12:23:00,
2013-05-15 09:09:00,65.1,58.1,29.93,ESE,112,2.7,-999.0,78,-99.99,,,0.00,Acu-Link.com,2013-05-15 13:09:00,
2013-05-15 09:24:00,67.3,58.7,29.94,NNW,337,3.2,-999.0,74,-99.99,,,0.00,Acu-Link.com,2013-05-15 13:24:00,
2013-05-15 09:40:00,66.6,58.8,29.93,NW,315,2.7,-999.0,76,-99.99,,,0.00,Acu-Link.com,2013-05-15 13:40:00,
2013-05-15 09:55:00,66.7,58.1,29.92,NW,315,3.2,-999.0,74,-99.99,,,0.00,Acu-Link.com,2013-05-15 13:55:00,
2013-05-15 10:10:00,66.4,58.6,29.93,East,90,3.2,-999.0,76,-99.99,,,0.00,Acu-Link.com,2013-05-15 14:10:00,
2013-05-15 10:25:00,68.4,60.5,29.93,NNE,22,2.2,-999.0,76,-99.99,,,0.00,Acu-Link.com,2013-05-15 14:25:00,
2013-05-15 10:41:00,69.1,60.1,29.93,NNW,337,4.2,-999.0,73,-99.99,,,0.00,Acu-Link.com,2013-05-15 14:41:00,
2013-05-15 10:56:00,70.3,62.0,29.93,WNW,292,1.7,-999.0,75,-99.99,,,0.00,Acu-Link.com,2013-05-15 14:56:00,
2013-05-15 11:11:00,71.2,61.7,29.93,WNW,292,2.7,-999.0,72,-99.99,,,0.00,Acu-Link.com,2013-05-15 15:11:00,
2013-05-15 11:27:00,74.1,63.7,29.93,East,90,0.0,-999.0,70,-99.99,,,0.00,Acu-Link.com,2013-05-15 15:27:00,
2013-05-15 11:42:00,75.0,64.1,29.92,NNW,337,2.2,-999.0,69,-99.99,,,0.00,Acu-Link.com,2013-05-15 15:42:00,
2013-05-15 11:57:00,76.5,63.8,29.91,NNW,337,2.7,-999.0,65,-99.99,,,0.00,Acu-Link.com,2013-05-15 15:57:00,
2013-05-15 12:27:00,76.5,65.1,29.90,NE,45,1.1,-999.0,68,-99.99,,,0.00,Acu-Link.com,2013-05-15 16:27:00,
2013-05-15 12:43:00,77.0,65.2,29.90,West,270,1.7,-999.0,67,-99.99,,,0.00,Acu-Link.com,2013-05-15 16:43:00,
2013-05-15 12:58:00,80.8,66.5,29.88,West,270,4.2,-999.0,62,-99.99,,,0.00,Acu-Link.com,2013-05-15 16:58:00,
2013-05-15 13:13:00,82.8,67.0,29.88,WSW,247,4.2,-999.0,59,-99.99,,,0.00,Acu-Link.com,2013-05-15 17:13:00,
2013-05-15 13:28:00,84.2,67.8,29.87,ENE,67,3.7,-999.0,58,-99.99,,,0.00,Acu-Link.com,2013-05-15 17:28:00,
2013-05-15 13:44:00,85.6,68.6,29.86,WNW,292,3.7,-999.0,57,-99.99,,,0.00,Acu-Link.com,2013-05-15 17:44:00,
2013-05-15 13:59:00,86.7,69.1,29.85,NNW,337,1.1,-999.0,56,-99.99,,,0.00,Acu-Link.com,2013-05-15 17:59:00,
2013-05-15 14:14:00,86.5,67.3,29.84,WNW,292,2.7,-999.0,53,-99.99,,,0.00,Acu-Link.com,2013-05-15 18:14:00,
2013-05-15 14:45:00,86.2,66.5,29.83,West,270,3.2,-999.0,52,-99.99,,,0.00,Acu-Link.com,2013-05-15 18:45:00,
2013-05-15 15:00:00,87.1,66.2,29.83,WNW,292,3.2,-999.0,50,-99.99,,,0.00,Acu-Link.com,2013-05-15 19:00:00,
2013-05-15 15:30:00,87.4,67.0,29.81,North,0,1.1,-999.0,51,-99.99,,,0.00,Acu-Link.com,2013-05-15 19:30:00,
2013-05-15 15:45:00,86.5,66.8,29.80,WNW,292,1.1,-999.0,52,-99.99,,,0.00,Acu-Link.com,2013-05-15 19:45:00,
2013-05-15 16:01:00,89.1,67.4,29.80,West,270,2.2,-999.0,49,-99.99,,,0.00,Acu-Link.com,2013-05-15 20:01:00,
2013-05-15 16:16:00,88.7,67.6,29.80,NNE,22,1.1,-999.0,50,-99.99,,,0.00,Acu-Link.com,2013-05-15 20:16:00,
2013-05-15 16:32:00,88.9,67.8,29.79,West,270,2.7,-999.0,50,-99.99,,,0.00,Acu-Link.com,2013-05-15 20:32:00,
2013-05-15 17:02:00,88.7,67.0,29.79,West,270,1.7,-999.0,49,-99.99,,,0.00,Acu-Link.com,2013-05-15 21:02:00,
2013-05-15 17:18:00,89.4,68.3,29.79,West,270,1.1,-999.0,50,-99.99,,,0.00,Acu-Link.com,2013-05-15 21:18:00,
2013-05-15 18:03:00,90.5,67.5,29.78,SW,225,2.2,-999.0,47,-99.99,,,0.00,Acu-Link.com,2013-05-15 22:03:00,
2013-05-15 19:05:00,86.0,66.8,29.76,West,270,1.1,-999.0,53,-99.99,,,0.00,Acu-Link.com,2013-05-15 23:05:00,
2013-05-15 19:20:00,84.9,66.9,29.76,SSE,157,1.7,-999.0,55,-99.99,,,0.00,Acu-Link.com,2013-05-15 23:20:00,
2013-05-15 19:35:00,84.2,66.8,29.77,NE,45,1.7,-999.0,56,-99.99,,,0.00,Acu-Link.com,2013-05-15 23:35:00,
2013-05-15 19:51:00,83.3,67.0,29.77,ESE,112,1.1,-999.0,58,-99.99,,,0.00,Acu-Link.com,2013-05-15 23:51:00,
2013-05-15 20:06:00,82.2,66.9,29.77,WNW,292,0.0,-999.0,60,-99.99,,,0.00,Acu-Link.com,2013-05-16 00:06:00,
2013-05-15 20:21:00,81.3,66.5,29.77,NNE,22,1.1,-999.0,61,-99.99,,,0.00,Acu-Link.com,2013-05-16 00:21:00,
2013-05-15 20:36:00,80.6,66.8,29.77,NNE,22,0.0,-999.0,63,-99.99,,,0.00,Acu-Link.com,2013-05-16 00:36:00,
2013-05-15 20:51:00,79.9,67.1,29.78,West,270,2.2,-999.0,65,-99.99,,,0.00,Acu-Link.com,2013-05-16 00:51:00,
2013-05-15 21:06:00,79.2,67.3,29.78,West,270,0.0,-999.0,67,-99.99,,,0.00,Acu-Link.com,2013-05-16 01:06:00,
2013-05-15 21:22:00,78.6,67.1,29.79,NW,315,1.1,-999.0,68,-99.99,,,0.00,Acu-Link.com,2013-05-16 01:22:00,
2013-05-15 21:37:00,78.1,67.1,29.79,NW,315,1.1,-999.0,69,-99.99,,,0.00,Acu-Link.com,2013-05-16 01:37:00,
2013-05-15 22:08:00,77.0,66.9,29.80,ESE,112,1.1,-999.0,71,-99.99,,,0.00,Acu-Link.com,2013-05-16 02:08:00,
2013-05-15 22:23:00,76.5,66.8,29.80,NE,45,0.0,-999.0,72,-99.99,,,0.00,Acu-Link.com,2013-05-16 02:23:00,
2013-05-15 22:54:00,75.7,66.8,29.80,WNW,292,0.0,-999.0,74,-99.99,,,0.00,Acu-Link.com,2013-05-16 02:54:00,
2013-05-15 23:24:00,75.0,66.5,29.79,East,90,0.0,-999.0,75,-99.99,,,0.00,Acu-Link.com,2013-05-16 03:24:00,
2013-05-15 23:39:00,74.8,66.7,29.80,ESE,112,0.0,-999.0,76,-99.99,,,0.00,Acu-Link.com,2013-05-16 03:39:00,
2013-05-15 23:55:00,74.3,66.2,29.79,North,0,1.7,-999.0,76,-99.99,,,0.00,Acu-Link.com,2013-05-16 03:55:00,